sensor_id;sensor_type;location;lat;lon;timestamp;P1;durP1;ratioP1;P2;durP2;ratioP2
17177;SDS011;8704;52.006;4.374;2023-10-19T00:00:06;43.28;;;38.95;;
17177;SDS011;8704;52.006;4.374;2023-10-19T00:02:48;40.47;;;36.55;;
17177;SDS011;8704;52.006;4.374;2023-10-19T00:05:18;36.03;;;32.63;;
17177;SDS011;8704;52.006;4.374;2023-10-19T00:07:46;39.72;;;35.90;;
17177;SDS011;8704;52.006;4.374;2023-10-19T00:10:17;35.55;;;32.13;;
17177;SDS011;8704;52.006;4.374;2023-10-19T00:12:45;35.67;;;32.38;;
17177;SDS011;8704;52.006;4.374;2023-10-19T00:15:19;37.97;;;34.22;;
17177;SDS011;8704;52.006;4.374;2023-10-19T00:17:49;34.60;;;31.42;;
17177;SDS011;8704;52.006;4.374;2023-10-19T00:20:21;39.37;;;35.60;;
17177;SDS011;8704;52.006;4.374;2023-10-19T00:23:01;38.58;;;35.08;;
17177;SDS011;8704;52.006;4.374;2023-10-19T00:25:33;42.35;;;38.35;;
17177;SDS011;8704;52.006;4.374;2023-10-19T00:28:01;47.35;;;42.47;;
17177;SDS011;8704;52.006;4.374;2023-10-19T00:30:31;46.67;;;42.35;;
17177;SDS011;8704;52.006;4.374;2023-10-19T00:33:01;48.95;;;44.30;;
17177;SDS011;8704;52.006;4.374;2023-10-19T00:35:33;52.88;;;47.17;;
17177;SDS011;8704;52.006;4.374;2023-10-19T00:38:02;52.55;;;47.65;;
17177;SDS011;8704;52.006;4.374;2023-10-19T00:40:54;48.55;;;44.15;;
17177;SDS011;8704;52.006;4.374;2023-10-19T00:43:31;51.40;;;46.15;;
17177;SDS011;8704;52.006;4.374;2023-10-19T00:46:01;47.03;;;42.90;;
17177;SDS011;8704;52.006;4.374;2023-10-19T00:48:31;46.45;;;42.33;;
17177;SDS011;8704;52.006;4.374;2023-10-19T00:51:01;47.65;;;43.50;;
17177;SDS011;8704;52.006;4.374;2023-10-19T00:53:46;49.22;;;44.55;;
17177;SDS011;8704;52.006;4.374;2023-10-19T00:56:16;48.30;;;43.80;;
17177;SDS011;8704;52.006;4.374;2023-10-19T00:58:46;46.95;;;42.78;;
17177;SDS011;8704;52.006;4.374;2023-10-19T01:01:20;45.83;;;41.50;;
17177;SDS011;8704;52.006;4.374;2023-10-19T01:06:22;45.08;;;41.03;;
17177;SDS011;8704;52.006;4.374;2023-10-19T01:08:50;43.83;;;40.00;;
17177;SDS011;8704;52.006;4.374;2023-10-19T01:11:20;43.80;;;39.88;;
17177;SDS011;8704;52.006;4.374;2023-10-19T01:13:54;42.83;;;39.13;;
17177;SDS011;8704;52.006;4.374;2023-10-19T01:16:22;43.83;;;39.75;;
17177;SDS011;8704;52.006;4.374;2023-10-19T01:18:50;43.42;;;39.45;;
17177;SDS011;8704;52.006;4.374;2023-10-19T01:21:21;42.65;;;38.92;;
17177;SDS011;8704;52.006;4.374;2023-10-19T01:23:53;43.38;;;39.60;;
17177;SDS011;8704;52.006;4.374;2023-10-19T01:26:21;39.30;;;36.15;;
17177;SDS011;8704;52.006;4.374;2023-10-19T01:28:52;37.13;;;34.17;;
17177;SDS011;8704;52.006;4.374;2023-10-19T01:31:27;36.33;;;33.50;;
17177;SDS011;8704;52.006;4.374;2023-10-19T01:34:04;31.17;;;28.95;;
17177;SDS011;8704;52.006;4.374;2023-10-19T01:36:33;31.15;;;28.55;;
17177;SDS011;8704;52.006;4.374;2023-10-19T01:39:10;30.70;;;28.50;;
17177;SDS011;8704;52.006;4.374;2023-10-19T01:41:39;29.42;;;26.85;;
17177;SDS011;8704;52.006;4.374;2023-10-19T01:44:07;29.58;;;27.30;;
17177;SDS011;8704;52.006;4.374;2023-10-19T01:46:40;31.85;;;29.58;;
17177;SDS011;8704;52.006;4.374;2023-10-19T01:49:10;30.48;;;28.13;;
17177;SDS011;8704;52.006;4.374;2023-10-19T01:51:38;29.55;;;27.13;;
17177;SDS011;8704;52.006;4.374;2023-10-19T01:54:06;29.77;;;27.65;;
17177;SDS011;8704;52.006;4.374;2023-10-19T01:56:36;27.15;;;25.45;;
17177;SDS011;8704;52.006;4.374;2023-10-19T01:59:06;29.33;;;27.20;;
17177;SDS011;8704;52.006;4.374;2023-10-19T02:01:35;29.42;;;27.52;;
17177;SDS011;8704;52.006;4.374;2023-10-19T02:04:05;26.55;;;24.70;;
17177;SDS011;8704;52.006;4.374;2023-10-19T02:06:35;24.27;;;22.58;;
17177;SDS011;8704;52.006;4.374;2023-10-19T02:09:04;24.02;;;22.10;;
17177;SDS011;8704;52.006;4.374;2023-10-19T02:11:45;22.33;;;20.50;;
17177;SDS011;8704;52.006;4.374;2023-10-19T02:14:13;20.63;;;19.02;;
17177;SDS011;8704;52.006;4.374;2023-10-19T02:16:42;20.50;;;18.95;;
17177;SDS011;8704;52.006;4.374;2023-10-19T02:19:10;18.00;;;16.20;;
17177;SDS011;8704;52.006;4.374;2023-10-19T02:21:38;16.10;;;14.88;;
17177;SDS011;8704;52.006;4.374;2023-10-19T02:24:06;14.55;;;13.30;;
17177;SDS011;8704;52.006;4.374;2023-10-19T02:26:35;17.02;;;15.65;;
17177;SDS011;8704;52.006;4.374;2023-10-19T02:29:05;16.25;;;15.02;;
17177;SDS011;8704;52.006;4.374;2023-10-19T02:34:04;13.30;;;12.30;;
17177;SDS011;8704;52.006;4.374;2023-10-19T02:36:33;13.82;;;12.52;;
17177;SDS011;8704;52.006;4.374;2023-10-19T02:39:01;9.80;;;8.77;;
17177;SDS011;8704;52.006;4.374;2023-10-19T02:41:34;9.13;;;8.27;;
17177;SDS011;8704;52.006;4.374;2023-10-19T02:44:01;11.25;;;9.48;;
17177;SDS011;8704;52.006;4.374;2023-10-19T02:46:35;10.27;;;9.30;;
17177;SDS011;8704;52.006;4.374;2023-10-19T02:49:05;11.70;;;10.50;;
17177;SDS011;8704;52.006;4.374;2023-10-19T02:51:38;10.35;;;9.55;;
17177;SDS011;8704;52.006;4.374;2023-10-19T02:54:06;8.27;;;7.68;;
17177;SDS011;8704;52.006;4.374;2023-10-19T02:56:42;10.45;;;9.05;;
17177;SDS011;8704;52.006;4.374;2023-10-19T02:59:09;8.07;;;7.38;;
17177;SDS011;8704;52.006;4.374;2023-10-19T03:01:39;10.43;;;8.52;;
17177;SDS011;8704;52.006;4.374;2023-10-19T03:04:10;9.27;;;8.55;;
17177;SDS011;8704;52.006;4.374;2023-10-19T03:06:39;7.80;;;7.10;;
17177;SDS011;8704;52.006;4.374;2023-10-19T03:09:07;8.55;;;6.85;;
17177;SDS011;8704;52.006;4.374;2023-10-19T03:11:40;7.88;;;7.18;;
17177;SDS011;8704;52.006;4.374;2023-10-19T03:14:07;11.25;;;6.05;;
17177;SDS011;8704;52.006;4.374;2023-10-19T03:16:38;9.18;;;5.88;;
17177;SDS011;8704;52.006;4.374;2023-10-19T03:19:08;10.18;;;5.50;;
17177;SDS011;8704;52.006;4.374;2023-10-19T03:21:36;7.93;;;5.75;;
17177;SDS011;8704;52.006;4.374;2023-10-19T03:24:09;6.70;;;5.45;;
17177;SDS011;8704;52.006;4.374;2023-10-19T03:26:39;9.20;;;5.65;;
17177;SDS011;8704;52.006;4.374;2023-10-19T03:29:10;10.32;;;6.75;;
17177;SDS011;8704;52.006;4.374;2023-10-19T03:31:42;10.20;;;5.50;;
17177;SDS011;8704;52.006;4.374;2023-10-19T03:34:11;9.10;;;5.47;;
17177;SDS011;8704;52.006;4.374;2023-10-19T03:36:40;7.00;;;4.72;;
17177;SDS011;8704;52.006;4.374;2023-10-19T03:39:08;9.70;;;4.85;;
17177;SDS011;8704;52.006;4.374;2023-10-19T03:41:40;7.28;;;4.50;;
17177;SDS011;8704;52.006;4.374;2023-10-19T03:44:10;8.18;;;4.32;;
17177;SDS011;8704;52.006;4.374;2023-10-19T03:46:47;11.13;;;4.88;;
17177;SDS011;8704;52.006;4.374;2023-10-19T03:49:22;8.45;;;5.60;;
17177;SDS011;8704;52.006;4.374;2023-10-19T03:51:53;8.55;;;5.18;;
17177;SDS011;8704;52.006;4.374;2023-10-19T03:54:29;11.25;;;5.45;;
17177;SDS011;8704;52.006;4.374;2023-10-19T03:56:59;8.60;;;5.82;;
17177;SDS011;8704;52.006;4.374;2023-10-19T03:59:34;7.88;;;5.53;;
17177;SDS011;8704;52.006;4.374;2023-10-19T04:02:06;8.55;;;5.95;;
17177;SDS011;8704;52.006;4.374;2023-10-19T04:04:36;9.32;;;5.05;;
17177;SDS011;8704;52.006;4.374;2023-10-19T04:07:10;10.18;;;5.57;;
17177;SDS011;8704;52.006;4.374;2023-10-19T04:09:44;12.52;;;6.22;;
17177;SDS011;8704;52.006;4.374;2023-10-19T04:12:26;13.30;;;7.47;;
17177;SDS011;8704;52.006;4.374;2023-10-19T04:14:57;8.68;;;5.80;;
17177;SDS011;8704;52.006;4.374;2023-10-19T04:17:32;11.40;;;5.85;;
17177;SDS011;8704;52.006;4.374;2023-10-19T04:20:02;13.32;;;6.13;;
17177;SDS011;8704;52.006;4.374;2023-10-19T04:22:40;9.25;;;6.00;;
17177;SDS011;8704;52.006;4.374;2023-10-19T04:25:08;8.35;;;6.07;;
17177;SDS011;8704;52.006;4.374;2023-10-19T04:27:39;8.73;;;6.88;;
17177;SDS011;8704;52.006;4.374;2023-10-19T04:30:08;13.02;;;6.22;;
17177;SDS011;8704;52.006;4.374;2023-10-19T04:32:43;11.52;;;5.80;;
17177;SDS011;8704;52.006;4.374;2023-10-19T04:35:12;11.98;;;6.30;;
17177;SDS011;8704;52.006;4.374;2023-10-19T04:37:41;14.07;;;5.95;;
17177;SDS011;8704;52.006;4.374;2023-10-19T04:40:11;12.13;;;6.53;;
17177;SDS011;8704;52.006;4.374;2023-10-19T04:42:40;9.48;;;6.15;;
17177;SDS011;8704;52.006;4.374;2023-10-19T04:45:08;9.30;;;6.20;;
17177;SDS011;8704;52.006;4.374;2023-10-19T04:47:38;12.02;;;7.15;;
17177;SDS011;8704;52.006;4.374;2023-10-19T04:50:08;7.53;;;6.72;;
17177;SDS011;8704;52.006;4.374;2023-10-19T04:52:38;7.93;;;5.35;;
17177;SDS011;8704;52.006;4.374;2023-10-19T04:55:07;8.15;;;5.03;;
17177;SDS011;8704;52.006;4.374;2023-10-19T04:57:35;8.55;;;5.50;;
17177;SDS011;8704;52.006;4.374;2023-10-19T05:00:05;10.23;;;5.70;;
17177;SDS011;8704;52.006;4.374;2023-10-19T05:02:37;10.02;;;6.57;;
17177;SDS011;8704;52.006;4.374;2023-10-19T05:05:07;12.43;;;5.63;;
17177;SDS011;8704;52.006;4.374;2023-10-19T05:07:36;9.45;;;5.82;;
17177;SDS011;8704;52.006;4.374;2023-10-19T05:10:05;13.05;;;5.85;;
17177;SDS011;8704;52.006;4.374;2023-10-19T05:12:34;10.15;;;5.90;;
17177;SDS011;8704;52.006;4.374;2023-10-19T05:15:02;10.93;;;5.72;;
17177;SDS011;8704;52.006;4.374;2023-10-19T05:17:32;9.30;;;5.43;;
17177;SDS011;8704;52.006;4.374;2023-10-19T05:20:00;5.95;;;5.15;;
17177;SDS011;8704;52.006;4.374;2023-10-19T05:22:30;15.20;;;5.85;;
17177;SDS011;8704;52.006;4.374;2023-10-19T05:24:59;8.40;;;6.32;;
17177;SDS011;8704;52.006;4.374;2023-10-19T05:27:27;8.13;;;5.47;;
17177;SDS011;8704;52.006;4.374;2023-10-19T05:29:56;11.95;;;6.78;;
17177;SDS011;8704;52.006;4.374;2023-10-19T05:32:24;11.02;;;5.80;;
17177;SDS011;8704;52.006;4.374;2023-10-19T05:34:52;9.02;;;5.15;;
17177;SDS011;8704;52.006;4.374;2023-10-19T05:37:20;11.23;;;5.50;;
17177;SDS011;8704;52.006;4.374;2023-10-19T05:39:50;8.95;;;4.80;;
17177;SDS011;8704;52.006;4.374;2023-10-19T05:42:18;11.85;;;5.50;;
17177;SDS011;8704;52.006;4.374;2023-10-19T05:44:48;12.77;;;5.38;;
17177;SDS011;8704;52.006;4.374;2023-10-19T05:47:16;10.70;;;4.80;;
17177;SDS011;8704;52.006;4.374;2023-10-19T05:49:44;14.75;;;5.43;;
17177;SDS011;8704;52.006;4.374;2023-10-19T05:52:12;14.13;;;5.72;;
17177;SDS011;8704;52.006;4.374;2023-10-19T05:54:41;9.65;;;5.90;;
17177;SDS011;8704;52.006;4.374;2023-10-19T05:57:10;10.40;;;5.60;;
17177;SDS011;8704;52.006;4.374;2023-10-19T05:59:38;9.77;;;5.50;;
17177;SDS011;8704;52.006;4.374;2023-10-19T06:02:07;7.10;;;4.95;;
17177;SDS011;8704;52.006;4.374;2023-10-19T06:04:35;12.02;;;4.95;;
17177;SDS011;8704;52.006;4.374;2023-10-19T06:07:04;11.82;;;6.28;;
17177;SDS011;8704;52.006;4.374;2023-10-19T06:09:32;10.02;;;6.82;;
17177;SDS011;8704;52.006;4.374;2023-10-19T06:12:03;13.52;;;7.07;;
17177;SDS011;8704;52.006;4.374;2023-10-19T06:14:32;12.90;;;5.93;;
17177;SDS011;8704;52.006;4.374;2023-10-19T06:17:01;9.57;;;5.78;;
17177;SDS011;8704;52.006;4.374;2023-10-19T06:19:29;10.98;;;6.13;;
17177;SDS011;8704;52.006;4.374;2023-10-19T06:21:57;12.50;;;5.57;;
17177;SDS011;8704;52.006;4.374;2023-10-19T06:24:26;15.40;;;5.32;;
17177;SDS011;8704;52.006;4.374;2023-10-19T06:26:54;8.30;;;6.05;;
17177;SDS011;8704;52.006;4.374;2023-10-19T06:29:22;11.35;;;5.57;;
17177;SDS011;8704;52.006;4.374;2023-10-19T06:31:54;9.80;;;5.45;;
17177;SDS011;8704;52.006;4.374;2023-10-19T06:34:23;12.15;;;5.70;;
17177;SDS011;8704;52.006;4.374;2023-10-19T06:36:53;10.85;;;5.13;;
17177;SDS011;8704;52.006;4.374;2023-10-19T06:39:21;15.68;;;4.97;;
17177;SDS011;8704;52.006;4.374;2023-10-19T06:41:49;9.77;;;4.97;;
17177;SDS011;8704;52.006;4.374;2023-10-19T06:44:18;13.23;;;5.90;;
17177;SDS011;8704;52.006;4.374;2023-10-19T06:46:48;12.25;;;5.00;;
17177;SDS011;8704;52.006;4.374;2023-10-19T06:49:18;10.23;;;5.07;;
17177;SDS011;8704;52.006;4.374;2023-10-19T06:51:46;11.40;;;5.57;;
17177;SDS011;8704;52.006;4.374;2023-10-19T06:54:14;8.50;;;5.47;;
17177;SDS011;8704;52.006;4.374;2023-10-19T06:56:42;10.70;;;5.10;;
17177;SDS011;8704;52.006;4.374;2023-10-19T06:59:11;11.02;;;5.15;;
17177;SDS011;8704;52.006;4.374;2023-10-19T07:01:39;10.90;;;5.35;;
17177;SDS011;8704;52.006;4.374;2023-10-19T07:04:08;11.48;;;5.03;;
17177;SDS011;8704;52.006;4.374;2023-10-19T07:06:37;13.10;;;5.57;;
17177;SDS011;8704;52.006;4.374;2023-10-19T07:09:05;12.55;;;4.70;;
17177;SDS011;8704;52.006;4.374;2023-10-19T07:11:36;11.70;;;5.55;;
17177;SDS011;8704;52.006;4.374;2023-10-19T07:14:04;12.32;;;6.35;;
17177;SDS011;8704;52.006;4.374;2023-10-19T07:16:34;16.67;;;6.07;;
17177;SDS011;8704;52.006;4.374;2023-10-19T07:19:02;11.77;;;5.38;;
17177;SDS011;8704;52.006;4.374;2023-10-19T07:21:31;13.55;;;6.30;;
17177;SDS011;8704;52.006;4.374;2023-10-19T07:24:03;12.02;;;5.68;;
17177;SDS011;8704;52.006;4.374;2023-10-19T07:26:35;12.88;;;5.10;;
17177;SDS011;8704;52.006;4.374;2023-10-19T07:29:09;13.32;;;4.65;;
17177;SDS011;8704;52.006;4.374;2023-10-19T07:31:41;11.18;;;5.45;;
17177;SDS011;8704;52.006;4.374;2023-10-19T07:34:09;9.27;;;5.25;;
17177;SDS011;8704;52.006;4.374;2023-10-19T07:36:41;10.60;;;5.75;;
17177;SDS011;8704;52.006;4.374;2023-10-19T07:39:11;9.80;;;4.63;;
17177;SDS011;8704;52.006;4.374;2023-10-19T07:41:45;8.13;;;4.57;;
17177;SDS011;8704;52.006;4.374;2023-10-19T07:44:13;11.88;;;5.50;;
17177;SDS011;8704;52.006;4.374;2023-10-19T07:46:41;12.50;;;5.55;;
17177;SDS011;8704;52.006;4.374;2023-10-19T07:49:10;10.88;;;5.53;;
17177;SDS011;8704;52.006;4.374;2023-10-19T07:51:44;15.05;;;5.55;;
17177;SDS011;8704;52.006;4.374;2023-10-19T07:54:14;11.30;;;4.85;;
17177;SDS011;8704;52.006;4.374;2023-10-19T07:56:42;10.82;;;5.05;;
17177;SDS011;8704;52.006;4.374;2023-10-19T07:59:11;13.43;;;4.95;;
17177;SDS011;8704;52.006;4.374;2023-10-19T08:01:39;14.25;;;5.03;;
17177;SDS011;8704;52.006;4.374;2023-10-19T08:04:08;12.95;;;5.20;;
17177;SDS011;8704;52.006;4.374;2023-10-19T08:06:38;13.23;;;5.03;;
17177;SDS011;8704;52.006;4.374;2023-10-19T08:09:06;7.85;;;4.38;;
17177;SDS011;8704;52.006;4.374;2023-10-19T08:11:39;14.47;;;4.90;;
17177;SDS011;8704;52.006;4.374;2023-10-19T08:14:08;13.10;;;5.03;;
17177;SDS011;8704;52.006;4.374;2023-10-19T08:16:36;16.00;;;4.90;;
17177;SDS011;8704;52.006;4.374;2023-10-19T08:19:04;14.48;;;4.72;;
17177;SDS011;8704;52.006;4.374;2023-10-19T08:21:33;9.68;;;4.07;;
17177;SDS011;8704;52.006;4.374;2023-10-19T08:24:01;12.98;;;4.70;;
17177;SDS011;8704;52.006;4.374;2023-10-19T08:26:31;11.93;;;4.75;;
17177;SDS011;8704;52.006;4.374;2023-10-19T08:29:00;11.82;;;4.95;;
17177;SDS011;8704;52.006;4.374;2023-10-19T08:31:28;14.32;;;5.03;;
17177;SDS011;8704;52.006;4.374;2023-10-19T08:33:57;12.23;;;4.30;;
17177;SDS011;8704;52.006;4.374;2023-10-19T08:36:25;14.50;;;4.65;;
17177;SDS011;8704;52.006;4.374;2023-10-19T08:38:55;12.82;;;4.50;;
17177;SDS011;8704;52.006;4.374;2023-10-19T08:41:24;16.52;;;4.90;;
17177;SDS011;8704;52.006;4.374;2023-10-19T08:43:52;13.18;;;4.72;;
17177;SDS011;8704;52.006;4.374;2023-10-19T08:46:23;11.82;;;4.55;;
17177;SDS011;8704;52.006;4.374;2023-10-19T08:48:55;13.25;;;5.32;;
17177;SDS011;8704;52.006;4.374;2023-10-19T08:51:25;12.05;;;4.88;;
17177;SDS011;8704;52.006;4.374;2023-10-19T08:53:55;13.60;;;4.97;;
17177;SDS011;8704;52.006;4.374;2023-10-19T08:56:23;15.38;;;4.70;;
17177;SDS011;8704;52.006;4.374;2023-10-19T08:58:52;16.52;;;5.18;;
17177;SDS011;8704;52.006;4.374;2023-10-19T09:01:20;12.02;;;4.72;;
17177;SDS011;8704;52.006;4.374;2023-10-19T09:03:51;12.30;;;4.60;;
17177;SDS011;8704;52.006;4.374;2023-10-19T09:06:20;12.00;;;4.70;;
17177;SDS011;8704;52.006;4.374;2023-10-19T09:08:48;13.50;;;4.65;;
17177;SDS011;8704;52.006;4.374;2023-10-19T09:11:16;13.02;;;4.47;;
17177;SDS011;8704;52.006;4.374;2023-10-19T09:13:47;12.05;;;4.57;;
17177;SDS011;8704;52.006;4.374;2023-10-19T09:16:16;14.18;;;5.07;;
17177;SDS011;8704;52.006;4.374;2023-10-19T09:18:46;14.80;;;4.63;;
17177;SDS011;8704;52.006;4.374;2023-10-19T09:21:16;15.55;;;4.38;;
17177;SDS011;8704;52.006;4.374;2023-10-19T09:23:52;8.25;;;4.40;;
17177;SDS011;8704;52.006;4.374;2023-10-19T09:26:21;12.05;;;4.60;;
17177;SDS011;8704;52.006;4.374;2023-10-19T09:28:50;10.85;;;4.63;;
17177;SDS011;8704;52.006;4.374;2023-10-19T09:31:20;19.48;;;4.45;;
17177;SDS011;8704;52.006;4.374;2023-10-19T09:33:51;13.32;;;4.47;;
17177;SDS011;8704;52.006;4.374;2023-10-19T09:36:21;13.98;;;4.75;;
17177;SDS011;8704;52.006;4.374;2023-10-19T09:38:53;14.32;;;4.97;;
17177;SDS011;8704;52.006;4.374;2023-10-19T09:41:24;13.63;;;5.03;;
17177;SDS011;8704;52.006;4.374;2023-10-19T09:43:55;14.18;;;4.43;;
17177;SDS011;8704;52.006;4.374;2023-10-19T09:46:27;15.30;;;5.10;;
17177;SDS011;8704;52.006;4.374;2023-10-19T09:48:58;14.70;;;4.95;;
17177;SDS011;8704;52.006;4.374;2023-10-19T09:51:28;14.00;;;4.85;;
17177;SDS011;8704;52.006;4.374;2023-10-19T09:53:57;16.42;;;5.40;;
17177;SDS011;8704;52.006;4.374;2023-10-19T09:56:32;16.45;;;5.32;;
17177;SDS011;8704;52.006;4.374;2023-10-19T09:59:05;14.23;;;5.03;;
17177;SDS011;8704;52.006;4.374;2023-10-19T10:04:34;15.55;;;5.10;;
17177;SDS011;8704;52.006;4.374;2023-10-19T10:07:05;13.25;;;4.68;;
17177;SDS011;8704;52.006;4.374;2023-10-19T10:09:36;15.38;;;5.55;;
17177;SDS011;8704;52.006;4.374;2023-10-19T10:12:17;16.58;;;5.25;;
17177;SDS011;8704;52.006;4.374;2023-10-19T10:14:54;15.55;;;5.13;;
17177;SDS011;8704;52.006;4.374;2023-10-19T10:17:28;15.10;;;5.20;;
17177;SDS011;8704;52.006;4.374;2023-10-19T10:20:28;17.13;;;5.50;;
17177;SDS011;8704;52.006;4.374;2023-10-19T10:23:18;13.82;;;5.03;;
17177;SDS011;8704;52.006;4.374;2023-10-19T10:25:51;15.90;;;5.13;;
17177;SDS011;8704;52.006;4.374;2023-10-19T10:28:20;14.85;;;5.63;;
17177;SDS011;8704;52.006;4.374;2023-10-19T10:31:09;17.42;;;4.90;;
17177;SDS011;8704;52.006;4.374;2023-10-19T10:33:41;13.30;;;4.63;;
17177;SDS011;8704;52.006;4.374;2023-10-19T10:36:12;15.50;;;4.70;;
17177;SDS011;8704;52.006;4.374;2023-10-19T10:38:42;11.23;;;4.43;;
17177;SDS011;8704;52.006;4.374;2023-10-19T10:41:10;13.82;;;5.00;;
17177;SDS011;8704;52.006;4.374;2023-10-19T10:43:52;14.27;;;4.68;;
17177;SDS011;8704;52.006;4.374;2023-10-19T10:46:22;14.27;;;4.57;;
17177;SDS011;8704;52.006;4.374;2023-10-19T10:48:51;14.52;;;4.93;;
17177;SDS011;8704;52.006;4.374;2023-10-19T10:51:20;16.10;;;5.47;;
17177;SDS011;8704;52.006;4.374;2023-10-19T10:53:51;15.35;;;4.40;;
17177;SDS011;8704;52.006;4.374;2023-10-19T10:56:21;13.88;;;4.38;;
17177;SDS011;8704;52.006;4.374;2023-10-19T10:58:50;16.13;;;4.45;;
17177;SDS011;8704;52.006;4.374;2023-10-19T11:01:28;15.70;;;4.18;;
17177;SDS011;8704;52.006;4.374;2023-10-19T11:04:05;17.02;;;4.30;;
17177;SDS011;8704;52.006;4.374;2023-10-19T11:06:45;15.88;;;4.60;;
17177;SDS011;8704;52.006;4.374;2023-10-19T11:09:17;15.60;;;4.30;;
17177;SDS011;8704;52.006;4.374;2023-10-19T11:11:48;9.13;;;4.07;;
17177;SDS011;8704;52.006;4.374;2023-10-19T11:14:18;13.80;;;4.22;;
17177;SDS011;8704;52.006;4.374;2023-10-19T11:16:48;16.58;;;4.10;;
17177;SDS011;8704;52.006;4.374;2023-10-19T11:19:16;12.45;;;3.70;;
17177;SDS011;8704;52.006;4.374;2023-10-19T11:21:52;12.93;;;4.40;;
17177;SDS011;8704;52.006;4.374;2023-10-19T11:24:27;13.98;;;4.00;;
17177;SDS011;8704;52.006;4.374;2023-10-19T11:27:00;11.77;;;4.35;;
17177;SDS011;8704;52.006;4.374;2023-10-19T11:29:28;17.55;;;4.20;;
17177;SDS011;8704;52.006;4.374;2023-10-19T11:31:57;14.18;;;3.90;;
17177;SDS011;8704;52.006;4.374;2023-10-19T11:34:26;13.32;;;3.72;;
17177;SDS011;8704;52.006;4.374;2023-10-19T11:36:56;13.23;;;4.10;;
17177;SDS011;8704;52.006;4.374;2023-10-19T11:39:28;13.43;;;3.80;;
17177;SDS011;8704;52.006;4.374;2023-10-19T11:41:56;14.30;;;3.75;;
17177;SDS011;8704;52.006;4.374;2023-10-19T11:44:24;13.60;;;3.60;;
17177;SDS011;8704;52.006;4.374;2023-10-19T11:46:52;11.50;;;4.07;;
17177;SDS011;8704;52.006;4.374;2023-10-19T11:49:20;12.52;;;4.22;;
17177;SDS011;8704;52.006;4.374;2023-10-19T11:51:52;10.73;;;3.50;;
17177;SDS011;8704;52.006;4.374;2023-10-19T11:54:20;13.85;;;3.92;;
17177;SDS011;8704;52.006;4.374;2023-10-19T11:56:50;13.30;;;4.43;;
17177;SDS011;8704;52.006;4.374;2023-10-19T11:59:19;11.45;;;3.60;;
17177;SDS011;8704;52.006;4.374;2023-10-19T12:01:47;13.18;;;4.13;;
17177;SDS011;8704;52.006;4.374;2023-10-19T12:04:15;13.45;;;3.78;;
17177;SDS011;8704;52.006;4.374;2023-10-19T12:06:44;11.45;;;4.07;;
17177;SDS011;8704;52.006;4.374;2023-10-19T12:09:12;12.98;;;4.28;;
17177;SDS011;8704;52.006;4.374;2023-10-19T12:11:42;16.23;;;4.28;;
17177;SDS011;8704;52.006;4.374;2023-10-19T12:14:15;13.38;;;3.35;;
17177;SDS011;8704;52.006;4.374;2023-10-19T12:16:43;12.75;;;4.22;;
17177;SDS011;8704;52.006;4.374;2023-10-19T12:19:12;12.05;;;4.00;;
17177;SDS011;8704;52.006;4.374;2023-10-19T12:21:41;12.10;;;4.10;;
17177;SDS011;8704;52.006;4.374;2023-10-19T12:24:09;13.75;;;4.10;;
17177;SDS011;8704;52.006;4.374;2023-10-19T12:26:37;12.18;;;4.40;;
17177;SDS011;8704;52.006;4.374;2023-10-19T12:29:05;14.05;;;4.30;;
17177;SDS011;8704;52.006;4.374;2023-10-19T12:31:38;12.05;;;3.90;;
17177;SDS011;8704;52.006;4.374;2023-10-19T12:34:07;16.67;;;4.53;;
17177;SDS011;8704;52.006;4.374;2023-10-19T12:36:38;10.63;;;4.00;;
17177;SDS011;8704;52.006;4.374;2023-10-19T12:39:07;12.45;;;4.38;;
17177;SDS011;8704;52.006;4.374;2023-10-19T12:41:37;12.85;;;3.70;;
17177;SDS011;8704;52.006;4.374;2023-10-19T12:44:06;12.95;;;4.22;;
17177;SDS011;8704;52.006;4.374;2023-10-19T12:46:35;13.98;;;4.13;;
17177;SDS011;8704;52.006;4.374;2023-10-19T12:49:05;15.32;;;4.65;;
17177;SDS011;8704;52.006;4.374;2023-10-19T12:51:35;15.13;;;4.18;;
17177;SDS011;8704;52.006;4.374;2023-10-19T12:54:05;12.30;;;3.92;;
17177;SDS011;8704;52.006;4.374;2023-10-19T12:56:36;16.42;;;4.70;;
17177;SDS011;8704;52.006;4.374;2023-10-19T12:59:05;12.98;;;4.60;;
17177;SDS011;8704;52.006;4.374;2023-10-19T13:01:34;17.10;;;3.85;;
17177;SDS011;8704;52.006;4.374;2023-10-19T13:04:03;21.08;;;4.35;;
17177;SDS011;8704;52.006;4.374;2023-10-19T13:06:41;14.93;;;4.45;;
17177;SDS011;8704;52.006;4.374;2023-10-19T13:09:09;12.77;;;4.60;;
17177;SDS011;8704;52.006;4.374;2023-10-19T13:11:38;13.00;;;4.28;;
17177;SDS011;8704;52.006;4.374;2023-10-19T13:14:10;17.33;;;4.40;;
17177;SDS011;8704;52.006;4.374;2023-10-19T13:16:38;14.80;;;4.20;;
17177;SDS011;8704;52.006;4.374;2023-10-19T13:19:07;11.13;;;3.72;;
17177;SDS011;8704;52.006;4.374;2023-10-19T13:21:39;13.25;;;4.22;;
17177;SDS011;8704;52.006;4.374;2023-10-19T13:24:09;13.77;;;4.55;;
17177;SDS011;8704;52.006;4.374;2023-10-19T13:26:40;11.88;;;4.38;;
17177;SDS011;8704;52.006;4.374;2023-10-19T13:29:12;11.88;;;4.68;;
17177;SDS011;8704;52.006;4.374;2023-10-19T13:31:41;13.90;;;4.45;;
17177;SDS011;8704;52.006;4.374;2023-10-19T13:34:15;12.07;;;4.30;;
17177;SDS011;8704;52.006;4.374;2023-10-19T13:36:43;10.80;;;4.38;;
17177;SDS011;8704;52.006;4.374;2023-10-19T13:39:14;14.52;;;4.68;;
17177;SDS011;8704;52.006;4.374;2023-10-19T13:41:43;11.57;;;4.80;;
17177;SDS011;8704;52.006;4.374;2023-10-19T13:44:11;12.05;;;4.60;;
17177;SDS011;8704;52.006;4.374;2023-10-19T13:46:40;14.40;;;4.72;;
17177;SDS011;8704;52.006;4.374;2023-10-19T13:49:08;14.25;;;4.10;;
17177;SDS011;8704;52.006;4.374;2023-10-19T13:51:36;11.77;;;4.47;;
17177;SDS011;8704;52.006;4.374;2023-10-19T13:54:05;18.77;;;4.35;;
17177;SDS011;8704;52.006;4.374;2023-10-19T13:56:35;13.30;;;4.35;;
17177;SDS011;8704;52.006;4.374;2023-10-19T13:59:03;10.93;;;3.97;;
17177;SDS011;8704;52.006;4.374;2023-10-19T14:01:31;17.17;;;4.63;;
17177;SDS011;8704;52.006;4.374;2023-10-19T14:04:00;15.02;;;4.15;;
17177;SDS011;8704;52.006;4.374;2023-10-19T14:06:28;10.82;;;4.40;;
17177;SDS011;8704;52.006;4.374;2023-10-19T14:08:57;12.25;;;4.22;;
17177;SDS011;8704;52.006;4.374;2023-10-19T14:11:25;16.52;;;4.70;;
17177;SDS011;8704;52.006;4.374;2023-10-19T14:13:54;16.75;;;4.90;;
17177;SDS011;8704;52.006;4.374;2023-10-19T14:16:22;10.90;;;4.15;;
17177;SDS011;8704;52.006;4.374;2023-10-19T14:18:52;13.15;;;3.83;;
17177;SDS011;8704;52.006;4.374;2023-10-19T14:21:20;14.98;;;4.53;;
17177;SDS011;8704;52.006;4.374;2023-10-19T14:23:49;14.40;;;3.85;;
17177;SDS011;8704;52.006;4.374;2023-10-19T14:26:17;16.60;;;4.60;;
17177;SDS011;8704;52.006;4.374;2023-10-19T14:28:46;12.68;;;4.15;;
17177;SDS011;8704;52.006;4.374;2023-10-19T14:31:15;14.02;;;4.53;;
17177;SDS011;8704;52.006;4.374;2023-10-19T14:33:43;12.25;;;4.22;;
17177;SDS011;8704;52.006;4.374;2023-10-19T14:36:11;11.20;;;3.80;;
17177;SDS011;8704;52.006;4.374;2023-10-19T14:38:39;13.30;;;4.43;;
17177;SDS011;8704;52.006;4.374;2023-10-19T14:41:09;12.43;;;4.20;;
17177;SDS011;8704;52.006;4.374;2023-10-19T14:43:37;14.75;;;4.82;;
17177;SDS011;8704;52.006;4.374;2023-10-19T14:46:05;9.90;;;4.15;;
17177;SDS011;8704;52.006;4.374;2023-10-19T14:48:35;13.60;;;4.75;;
17177;SDS011;8704;52.006;4.374;2023-10-19T14:51:03;13.73;;;4.50;;
17177;SDS011;8704;52.006;4.374;2023-10-19T14:53:33;12.88;;;4.00;;
17177;SDS011;8704;52.006;4.374;2023-10-19T14:56:01;11.45;;;4.85;;
17177;SDS011;8704;52.006;4.374;2023-10-19T14:58:29;13.43;;;4.32;;
17177;SDS011;8704;52.006;4.374;2023-10-19T15:00:58;13.95;;;4.20;;
17177;SDS011;8704;52.006;4.374;2023-10-19T15:03:26;14.55;;;4.43;;
17177;SDS011;8704;52.006;4.374;2023-10-19T15:05:57;12.95;;;4.40;;
17177;SDS011;8704;52.006;4.374;2023-10-19T15:08:26;12.13;;;4.00;;
17177;SDS011;8704;52.006;4.374;2023-10-19T15:10:58;10.43;;;3.67;;
17177;SDS011;8704;52.006;4.374;2023-10-19T15:13:26;10.60;;;3.90;;